createdAt,value
2022-08-28T00:00:59.259Z,117.35
2022-08-28T00:03:46.261Z,119.88
2022-08-28T00:06:33.601Z,120.88
2022-08-28T00:09:20.913Z,119.40
2022-08-28T00:12:08.856Z,119.63
2022-08-28T00:14:55.842Z,118.43
2022-08-28T00:17:43.329Z,114.22
2022-08-28T00:20:32.069Z,117.90
2022-08-28T00:23:19.673Z,119.90
2022-08-28T00:26:06.759Z,116.28
2022-08-28T00:28:53.789Z,118.63
2022-08-28T00:31:40.877Z,117.60
2022-08-28T00:34:33.293Z,114.97
2022-08-28T00:37:20.932Z,115.28
2022-08-28T00:40:15.858Z,112.63
2022-08-28T00:43:05.834Z,111.70
2022-08-28T00:45:53.437Z,112.10
2022-08-28T00:48:40.894Z,113.30
2022-08-28T00:51:46.853Z,112.78
2022-08-28T00:54:38.453Z,112.22
2022-08-28T00:57:33.023Z,113.72
2022-08-28T01:03:09.359Z,110.82
2022-08-28T01:05:56.326Z,110.15
2022-08-28T01:08:46.338Z,115.18
2022-08-28T01:11:40.515Z,117.43
2022-08-28T01:14:29.936Z,116.25
2022-08-28T01:17:20.970Z,116.03
2022-08-28T01:20:13.572Z,118.35
2022-08-28T01:23:14.086Z,117.03
2022-08-28T01:26:01.152Z,116.85
2022-08-28T01:28:48.707Z,117.40
2022-08-28T01:31:36.777Z,118.35
2022-08-28T01:34:23.924Z,116.00
2022-08-28T01:37:11.049Z,115.32
2022-08-28T01:39:58.113Z,118.97
2022-08-28T01:42:45.164Z,116.13
2022-08-28T01:45:32.145Z,114.13
2022-08-28T01:48:20.898Z,117.00
2022-08-28T01:51:08.739Z,115.35
2022-08-28T01:53:55.758Z,115.30
2022-08-28T01:56:44.424Z,117.57
2022-08-28T01:59:31.697Z,117.93
2022-08-28T02:02:18.656Z,118.25
2022-08-28T02:05:05.989Z,118.75
2022-08-28T02:07:52.970Z,118.03
2022-08-28T02:10:41.201Z,116.25
2022-08-28T02:13:28.355Z,115.22
2022-08-28T02:16:15.412Z,115.40
2022-08-28T02:19:02.942Z,114.00
2022-08-28T02:21:49.911Z,114.53
2022-08-28T02:24:37.111Z,116.38
2022-08-28T02:27:24.164Z,117.65
2022-08-28T02:30:13.365Z,116.72
2022-08-28T02:33:00.400Z,116.13
2022-08-28T02:35:47.490Z,117.82
2022-08-28T02:38:34.746Z,118.55
2022-08-28T02:41:21.720Z,117.78
2022-08-28T02:44:09.494Z,118.03
2022-08-28T02:46:56.462Z,116.55
2022-08-28T02:49:43.626Z,116.30
2022-08-28T02:52:30.551Z,114.75
2022-08-28T02:55:19.552Z,115.95
2022-08-28T02:58:09.702Z,117.65
2022-08-28T03:00:57.996Z,118.15
2022-08-28T03:03:46.190Z,112.93
2022-08-28T03:06:33.849Z,115.35
2022-08-28T03:09:20.811Z,117.03
2022-08-28T03:12:10.758Z,115.65
2022-08-28T03:14:57.715Z,116.45
2022-08-28T03:17:45.143Z,114.28
2022-08-28T03:20:35.163Z,112.97
2022-08-28T03:23:26.610Z,115.32
2022-08-28T03:26:19.121Z,112.13
2022-08-28T03:29:06.182Z,110.95
2022-08-28T03:31:53.268Z,116.18
2022-08-28T03:34:41.123Z,115.38
2022-08-28T03:37:28.119Z,113.57
2022-08-28T03:40:15.794Z,113.72
2022-08-28T03:43:02.833Z,116.22
2022-08-28T03:46:02.435Z,115.20
2022-08-28T03:48:50.976Z,112.55
2022-08-28T03:51:38.412Z,115.03
2022-08-28T03:54:25.654Z,110.53
2022-08-28T03:57:12.635Z,110.10
2022-08-28T03:59:59.925Z,114.25
2022-08-28T04:02:46.973Z,112.60
2022-08-28T04:05:35.127Z,114.53
2022-08-28T04:08:23.127Z,113.70
2022-08-28T04:11:10.827Z,110.97
2022-08-28T04:13:58.233Z,116.45
2022-08-28T04:16:45.176Z,115.45
2022-08-28T04:19:32.279Z,116.47
2022-08-28T04:22:19.362Z,116.50
2022-08-28T04:25:07.617Z,114.82
2022-08-28T04:27:54.606Z,113.15
2022-08-28T04:30:41.999Z,115.28
2022-08-28T04:33:31.309Z,115.63
2022-08-28T04:36:18.843Z,120.22
2022-08-28T04:39:10.323Z,119.47
2022-08-28T04:41:57.342Z,123.38
2022-08-28T04:44:44.355Z,120.35
2022-08-28T04:47:31.278Z,119.32
2022-08-28T04:50:18.333Z,121.65
2022-08-28T04:53:05.250Z,122.15
2022-08-28T04:55:54.551Z,120.90
2022-08-28T04:58:44.196Z,118.15
2022-08-28T05:01:31.700Z,121.47
2022-08-28T05:04:19.834Z,122.13
2022-08-28T05:07:06.896Z,121.13
2022-08-28T05:09:54.652Z,119.05
2022-08-28T05:12:41.695Z,119.20
2022-08-28T05:15:29.093Z,119.97
2022-08-28T05:18:17.588Z,121.85
2022-08-28T05:21:04.711Z,115.85
2022-08-28T05:23:56.577Z,115.13
2022-08-28T05:26:44.367Z,111.38
2022-08-28T05:29:35.789Z,113.55
2022-08-28T05:32:22.793Z,109.65
2022-08-28T05:35:09.837Z,106.75
2022-08-28T05:37:56.753Z,112.50
2022-08-28T05:40:47.965Z,113.10
2022-08-28T05:43:35.102Z,111.57
2022-08-28T05:46:22.571Z,114.43
2022-08-28T05:49:10.482Z,113.55
2022-08-28T05:51:57.695Z,113.72
2022-08-28T05:54:44.816Z,109.95
2022-08-28T05:57:31.743Z,112.07
2022-08-28T06:00:18.708Z,111.97
2022-08-28T06:03:05.928Z,110.95
2022-08-28T06:05:56.065Z,112.50
2022-08-28T06:08:56.392Z,107.35
2022-08-28T06:11:47.468Z,108.63
2022-08-28T06:14:35.008Z,110.20
2022-08-28T06:17:23.645Z,107.57
2022-08-28T06:20:11.375Z,107.55
2022-08-28T06:22:58.708Z,110.22
2022-08-28T06:25:49.269Z,108.50
2022-08-28T06:28:36.323Z,110.43
2022-08-28T06:31:25.441Z,108.03
2022-08-28T06:34:14.708Z,111.28
2022-08-28T06:37:01.765Z,114.05
2022-08-28T06:39:48.718Z,112.00
2022-08-28T06:42:35.660Z,114.90
2022-08-28T06:45:22.614Z,114.63
2022-08-28T06:48:11.481Z,116.65
2022-08-28T06:50:59.294Z,112.97
2022-08-28T06:53:47.283Z,117.38
2022-08-28T06:56:34.797Z,119.88
2022-08-28T06:59:21.772Z,117.68
2022-08-28T07:02:09.475Z,114.68
2022-08-28T07:04:56.511Z,115.05
2022-08-28T07:07:43.594Z,113.93
2022-08-28T07:10:31.419Z,112.35
2022-08-28T07:13:18.556Z,114.47
2022-08-28T07:16:05.843Z,110.45
2022-08-28T07:18:53.321Z,112.00
2022-08-28T07:21:44.004Z,111.75
2022-08-28T07:24:31.016Z,111.35
2022-08-28T07:27:19.169Z,113.43
2022-08-28T07:30:07.272Z,107.15
2022-08-28T07:32:54.280Z,107.93
2022-08-28T07:35:44.322Z,108.15
2022-08-28T07:38:31.333Z,109.45
2022-08-28T07:41:22.125Z,109.70
2022-08-28T07:44:30.303Z,108.90
2022-08-28T07:47:18.643Z,108.90
2022-08-28T07:50:06.108Z,108.97
2022-08-28T07:52:53.032Z,106.22
2022-08-28T07:55:40.009Z,105.88
2022-08-28T07:58:26.978Z,108.03
2022-08-28T08:01:14.420Z,109.28
2022-08-28T08:04:02.435Z,107.78
2022-08-28T08:06:57.034Z,106.78
2022-08-28T08:09:46.570Z,107.43
2022-08-28T08:12:34.738Z,109.75
2022-08-28T08:15:22.016Z,108.03
2022-08-28T08:18:09.004Z,110.05
2022-08-28T08:20:56.287Z,113.53
2022-08-28T08:23:43.641Z,115.50
2022-08-28T08:26:30.950Z,116.20
2022-08-28T08:29:18.011Z,117.88
2022-08-28T08:32:09.403Z,117.70
2022-08-28T08:34:56.363Z,116.88
2022-08-28T08:37:43.396Z,118.72
2022-08-28T08:40:30.676Z,118.03
2022-08-28T08:43:20.077Z,116.57
2022-08-28T08:46:09.288Z,119.57
2022-08-28T08:48:59.913Z,119.95
2022-08-28T08:51:53.083Z,119.63
2022-08-28T08:54:46.420Z,119.93
2022-08-28T08:57:36.285Z,119.32
2022-08-28T09:00:23.744Z,116.05
2022-08-28T09:03:20.498Z,117.18
2022-08-28T09:06:35.911Z,118.18
2022-08-28T09:09:42.046Z,119.07
2022-08-28T09:12:31.271Z,114.50
2022-08-28T09:15:25.315Z,121.78
2022-08-28T09:18:22.478Z,123.20
2022-08-28T09:21:09.502Z,120.93
2022-08-28T09:24:00.572Z,120.22
2022-08-28T09:27:33.432Z,120.88
2022-08-28T09:30:31.812Z,121.78
2022-08-28T09:33:28.497Z,119.88
2022-08-28T09:36:33.294Z,118.97
2022-08-28T09:39:22.035Z,121.28
2022-08-28T09:42:43.047Z,123.47
2022-08-28T09:45:30.134Z,123.10
2022-08-28T09:48:44.356Z,124.75
2022-08-28T09:51:31.455Z,122.50
2022-08-28T09:54:45.565Z,119.35
2022-08-28T09:57:32.554Z,121.60
2022-08-28T10:00:19.591Z,120.47
2022-08-28T10:03:17.200Z,123.50
2022-08-28T10:06:35.096Z,122.05
2022-08-28T10:09:40.604Z,126.00
2022-08-28T10:12:54.020Z,122.60
2022-08-28T10:15:59.177Z,122.45
2022-08-28T10:19:10.113Z,123.18
2022-08-28T10:22:18.075Z,123.68
2022-08-28T10:25:14.884Z,126.00
2022-08-28T10:28:39.714Z,126.07
2022-08-28T10:31:52.386Z,124.40
2022-08-28T10:34:57.585Z,124.65
2022-08-28T10:38:16.863Z,126.38
2022-08-28T10:41:13.480Z,129.32
2022-08-28T10:44:03.012Z,128.00
2022-08-28T10:46:57.343Z,130.27
2022-08-28T10:49:49.454Z,131.07
2022-08-28T10:52:41.663Z,132.02
2022-08-28T10:55:39.463Z,130.95
2022-08-28T10:58:27.647Z,133.13
2022-08-28T11:01:24.982Z,135.25
2022-08-28T11:04:25.157Z,141.55
2022-08-28T11:07:21.295Z,138.52
2022-08-28T11:10:45.417Z,141.73
2022-08-28T11:13:40.629Z,141.82
2022-08-28T11:16:28.010Z,149.75
2022-08-28T11:19:43.393Z,156.73
2022-08-28T11:22:49.236Z,161.73
2022-08-28T11:25:51.491Z,176.13
2022-08-28T11:28:47.580Z,193.25
2022-08-28T11:31:38.266Z,218.90
2022-08-28T11:35:03.038Z,229.38
2022-08-28T11:37:53.334Z,228.70
2022-08-28T11:40:51.038Z,223.25
2022-08-28T11:43:44.809Z,225.73
2022-08-28T11:46:34.299Z,223.02
2022-08-28T11:49:24.656Z,219.32
2022-08-28T11:52:38.346Z,210.32
2022-08-28T11:55:36.003Z,224.18
2022-08-28T11:58:41.289Z,225.32
2022-08-28T12:01:33.788Z,219.10
2022-08-28T12:04:23.764Z,237.65
2022-08-28T12:07:13.937Z,252.77
2022-08-28T12:10:04.939Z,248.75
2022-08-28T12:12:55.707Z,247.32
2022-08-28T12:15:43.032Z,242.95
2022-08-28T12:18:40.357Z,245.07
2022-08-28T12:21:29.229Z,235.50
2022-08-28T12:24:21.869Z,241.13
2022-08-28T12:27:09.829Z,240.50
2022-08-28T12:29:59.697Z,238.43
2022-08-28T12:33:03.626Z,232.32
2022-08-28T12:35:51.105Z,220.23
2022-08-28T12:38:38.301Z,219.98
2022-08-28T12:41:25.477Z,233.65
2022-08-28T12:44:15.510Z,239.98
2022-08-28T12:47:02.826Z,244.95
2022-08-28T12:49:49.800Z,249.85
2022-08-28T12:52:47.412Z,257.23
2022-08-28T12:55:34.723Z,243.75
2022-08-28T12:58:31.478Z,222.00
2022-08-28T13:01:21.667Z,226.80
2022-08-28T13:04:31.349Z,234.10
2022-08-28T13:07:24.028Z,238.68
2022-08-28T13:10:39.307Z,240.20
2022-08-28T13:13:52.504Z,246.07
2022-08-28T13:16:41.366Z,249.02
2022-08-28T13:19:31.097Z,250.15
2022-08-28T13:22:41.814Z,243.90
2022-08-28T13:25:38.353Z,240.05
2022-08-28T13:28:25.569Z,239.00
2022-08-28T13:31:30.851Z,234.55
2022-08-28T13:34:19.203Z,233.85
2022-08-28T13:37:14.703Z,234.40
2022-08-28T13:40:19.742Z,238.77
2022-08-28T13:43:16.897Z,241.52
2022-08-28T13:46:03.992Z,233.73
2022-08-28T13:48:51.101Z,236.68
2022-08-28T13:51:39.461Z,248.85
2022-08-28T13:54:27.977Z,245.38
2022-08-28T13:57:15.535Z,241.68
2022-08-28T14:00:03.416Z,241.63
2022-08-28T14:03:09.295Z,241.02
2022-08-28T14:05:56.805Z,237.77
2022-08-28T14:08:45.560Z,238.13
2022-08-28T14:11:33.331Z,233.00
2022-08-28T14:14:20.784Z,234.48
2022-08-28T14:17:08.933Z,234.73
2022-08-28T14:19:56.117Z,239.68
2022-08-28T14:22:43.095Z,245.27
2022-08-28T14:25:30.164Z,252.40
2022-08-28T14:28:17.866Z,239.18
2022-08-28T14:31:05.849Z,237.93
2022-08-28T14:33:52.953Z,229.77
2022-08-28T14:36:41.399Z,225.35
2022-08-28T14:39:28.645Z,222.80
2022-08-28T14:42:15.789Z,224.98
2022-08-28T14:45:02.965Z,216.63
2022-08-28T14:47:49.872Z,204.88
2022-08-28T14:50:42.007Z,199.25
2022-08-28T14:53:29.072Z,188.40
2022-08-28T14:56:16.121Z,191.40
2022-08-28T14:59:04.992Z,192.15
2022-08-28T15:01:55.263Z,190.30
2022-08-28T15:04:42.331Z,194.98
2022-08-28T15:07:29.804Z,195.73
2022-08-28T15:10:17.282Z,197.95
2022-08-28T15:13:04.753Z,203.50
2022-08-28T15:16:02.766Z,215.73
2022-08-28T15:18:50.251Z,221.50
2022-08-28T15:21:41.869Z,212.85
2022-08-28T15:24:31.558Z,212.25
2022-08-28T15:27:18.575Z,212.70
2022-08-28T15:30:06.372Z,214.05
2022-08-28T15:32:54.364Z,206.05
2022-08-28T15:35:41.401Z,210.82
2022-08-28T15:38:28.617Z,206.13
2022-08-28T15:41:24.929Z,200.73
2022-08-28T15:44:15.036Z,205.02
2022-08-28T15:47:04.967Z,199.18
2022-08-28T15:49:56.121Z,202.07
2022-08-28T15:52:44.435Z,194.90
2022-08-28T15:55:32.470Z,191.93
2022-08-28T15:58:19.469Z,187.35
2022-08-28T16:01:07.922Z,189.13
2022-08-28T16:03:55.095Z,184.45
2022-08-28T16:06:42.963Z,185.73
2022-08-28T16:09:30.050Z,184.60
2022-08-28T16:12:17.898Z,180.02
2022-08-28T16:15:05.329Z,173.50
2022-08-28T16:17:52.753Z,174.98
2022-08-28T16:20:44.611Z,171.20
2022-08-28T16:23:32.702Z,170.20
2022-08-28T16:26:19.943Z,166.32
2022-08-28T16:29:07.609Z,170.75
2022-08-28T16:31:55.130Z,171.00
2022-08-28T16:34:44.771Z,171.63
2022-08-28T16:37:38.351Z,171.93
2022-08-28T16:40:27.212Z,169.13
2022-08-28T16:43:14.720Z,174.00
2022-08-28T16:46:02.980Z,172.93
2022-08-28T16:48:51.284Z,169.20
2022-08-28T16:51:39.100Z,168.90
2022-08-28T16:54:26.125Z,167.75
2022-08-28T16:57:13.081Z,167.13
2022-08-28T17:00:00.510Z,165.50
2022-08-28T17:02:48.087Z,164.27
2022-08-28T17:05:35.985Z,159.30
2022-08-28T17:08:25.450Z,161.68
2022-08-28T17:11:13.013Z,163.07
2022-08-28T17:14:00.443Z,160.98
2022-08-28T17:16:48.582Z,160.15
2022-08-28T17:19:36.903Z,163.75
2022-08-28T17:22:32.098Z,158.73
2022-08-28T17:25:19.227Z,153.20
2022-08-28T17:28:06.479Z,155.70
2022-08-28T17:30:53.692Z,153.05
2022-08-28T17:33:42.618Z,149.00
2022-08-28T17:36:33.559Z,148.65
2022-08-28T17:39:21.360Z,148.40
2022-08-28T17:42:08.479Z,148.05
2022-08-28T17:44:56.201Z,144.43
2022-08-28T17:47:43.647Z,145.85
2022-08-28T17:50:30.869Z,142.82
2022-08-28T17:53:18.836Z,147.15
2022-08-28T17:56:06.458Z,143.13
2022-08-28T17:58:53.557Z,143.02
2022-08-28T18:01:45.038Z,143.90
2022-08-28T18:04:33.020Z,140.88
2022-08-28T18:07:20.250Z,139.20
2022-08-28T18:10:11.834Z,138.25
2022-08-28T18:12:59.810Z,137.27
2022-08-28T18:15:50.952Z,135.07
2022-08-28T18:18:43.935Z,135.43
2022-08-28T18:21:31.344Z,134.30
2022-08-28T18:24:18.408Z,134.55
2022-08-28T18:27:07.617Z,133.18
2022-08-28T18:29:54.683Z,130.55
2022-08-28T18:32:41.673Z,133.52
2022-08-28T18:35:32.150Z,136.35
2022-08-28T18:38:21.960Z,133.43
2022-08-28T18:41:09.612Z,135.25
2022-08-28T18:43:57.681Z,132.98
2022-08-28T18:46:50.312Z,130.23
2022-08-28T18:49:37.359Z,131.40
2022-08-28T18:52:24.417Z,131.30
2022-08-28T18:55:11.632Z,127.93
2022-08-28T18:58:00.737Z,131.68
2022-08-28T19:00:48.987Z,128.60
2022-08-28T19:03:36.260Z,127.28
2022-08-28T19:06:23.447Z,124.13
2022-08-28T19:09:19.253Z,124.00
2022-08-28T19:12:07.905Z,123.85
2022-08-28T19:14:57.754Z,119.38
2022-08-28T19:17:45.038Z,122.88
2022-08-28T19:20:33.199Z,121.03
2022-08-28T19:23:20.237Z,116.47
2022-08-28T19:26:08.197Z,118.43
2022-08-28T19:28:55.409Z,119.13
2022-08-28T19:31:43.861Z,120.30
2022-08-28T19:34:32.265Z,118.72
2022-08-28T19:37:19.305Z,115.78
2022-08-28T19:40:07.254Z,117.53
2022-08-28T19:42:54.412Z,118.95
2022-08-28T19:45:42.504Z,122.13
2022-08-28T19:48:29.454Z,121.20
2022-08-28T19:51:23.182Z,120.70
2022-08-28T19:54:14.104Z,121.28
2022-08-28T19:57:01.511Z,122.68
2022-08-28T19:59:48.458Z,118.38
2022-08-28T20:02:35.553Z,116.97
2022-08-28T20:05:23.945Z,120.03
2022-08-28T20:08:11.106Z,119.03
2022-08-28T20:10:59.425Z,117.32
2022-08-28T20:13:46.408Z,116.55
2022-08-28T20:16:37.536Z,119.18
2022-08-28T20:19:24.625Z,116.13
2022-08-28T20:22:12.224Z,115.55
2022-08-28T20:24:59.704Z,113.55
2022-08-28T20:27:46.627Z,113.18
2022-08-28T20:30:33.699Z,115.43
2022-08-28T20:33:20.629Z,116.18
2022-08-28T20:36:15.312Z,115.63
2022-08-28T20:39:09.732Z,114.00
2022-08-28T20:41:56.969Z,111.63
2022-08-28T20:44:43.975Z,113.65
2022-08-28T20:47:30.924Z,112.75
2022-08-28T20:50:17.940Z,105.82
2022-08-28T20:53:04.941Z,107.18
2022-08-28T20:55:56.596Z,110.60
2022-08-28T20:58:43.654Z,111.03
2022-08-28T21:01:31.039Z,109.25
2022-08-28T21:04:19.091Z,110.82
2022-08-28T21:07:06.464Z,111.72
2022-08-28T21:10:04.967Z,113.70
2022-08-28T21:12:54.855Z,114.00
2022-08-28T21:15:41.881Z,115.22
2022-08-28T21:18:29.237Z,114.63
2022-08-28T21:21:16.856Z,111.75
2022-08-28T21:24:09.257Z,112.15
2022-08-28T21:26:57.939Z,113.50
2022-08-28T21:29:46.227Z,107.90
2022-08-28T21:32:34.451Z,107.57
2022-08-28T21:35:21.580Z,108.22
2022-08-28T21:38:08.501Z,109.68
2022-08-28T21:40:55.452Z,107.05
2022-08-28T21:43:44.415Z,105.53
2022-08-28T21:46:31.476Z,105.28
2022-08-28T21:49:18.580Z,107.15
2022-08-28T21:52:05.871Z,104.20
2022-08-28T21:55:06.590Z,104.82
2022-08-28T21:57:53.506Z,105.82
2022-08-28T22:00:40.503Z,106.45
2022-08-28T22:03:28.797Z,107.45
2022-08-28T22:06:20.100Z,106.38
2022-08-28T22:09:08.384Z,107.20
2022-08-28T22:11:55.396Z,104.65
2022-08-28T22:14:42.451Z,105.00
2022-08-28T22:17:29.726Z,105.97
2022-08-28T22:20:16.704Z,104.70
2022-08-28T22:23:12.719Z,104.22
2022-08-28T22:26:06.172Z,105.38
2022-08-28T22:28:53.815Z,99.00
2022-08-28T22:31:44.695Z,101.78
2022-08-28T22:34:40.077Z,104.43
2022-08-28T22:37:27.171Z,104.15
2022-08-28T22:40:14.339Z,101.30
2022-08-28T22:43:01.323Z,105.03
2022-08-28T22:45:48.519Z,105.18
2022-08-28T22:48:35.730Z,104.07
2022-08-28T22:51:22.785Z,101.30
2022-08-28T22:54:09.774Z,101.18
2022-08-28T22:56:56.692Z,101.07
2022-08-28T22:59:43.633Z,98.32
2022-08-28T23:02:30.716Z,101.05
2022-08-28T23:05:18.002Z,101.45
2022-08-28T23:08:05.016Z,97.40
2022-08-28T23:10:59.731Z,100.38
2022-08-28T23:13:46.823Z,101.70
2022-08-28T23:16:35.184Z,98.10
2022-08-28T23:19:22.680Z,101.78
2022-08-28T23:22:09.967Z,100.60
2022-08-28T23:24:56.909Z,99.97
2022-08-28T23:27:45.370Z,98.38
2022-08-28T23:30:32.489Z,98.75
2022-08-28T23:33:24.069Z,100.55
2022-08-28T23:36:12.423Z,99.03
2022-08-28T23:38:59.401Z,99.15
2022-08-28T23:41:46.988Z,101.82
2022-08-28T23:44:34.431Z,99.45
2022-08-28T23:47:22.464Z,101.22
2022-08-28T23:50:14.744Z,102.55
2022-08-28T23:53:03.120Z,98.97
2022-08-28T23:55:51.357Z,100.45
2022-08-28T23:58:38.293Z,101.20
